Time;durP1;ratioP1;P1;durP2;ratioP2;P2;SDS_P1;SDS_P2;PMS_P1;PMS_P2;Temp;Humidity;BMP_temperature;BMP_pressure;BME280_temperature;BME280_humidity;BME280_pressure;Samples;Min_cycle;Max_cycle;Signal;HPM_P1;HPM_P2
2022/01/08 00:01:30;;;;;;;;;;;;;;;0.18;100.00;100649.91;4988553;28;20514;-74
2022/01/08 00:03:55;;;;;;;;;;;;;;;0.11;100.00;100647.75;4990133;28;19917;-78
2022/01/08 00:06:21;;;;;;;;;;;;;;;0.22;100.00;100658.34;4949186;28;20487;-78
2022/01/08 00:08:48;;;;;;;;;;;;;;;0.14;100.00;100660.50;4965627;28;19921;-79
2022/01/08 00:11:18;;;;;;;;;;;;;;;0.19;100.00;100663.69;4957001;28;19968;-77
2022/01/08 00:13:44;;;;;;;;;;;;;;;0.04;100.00;100667.91;4957370;28;19924;-78
2022/01/08 00:16:09;;;;;;;;;;;;;;;0.02;100.00;100668.88;4954450;28;19969;-78
2022/01/08 00:18:35;;;;;;;;;;;;;;;0.06;100.00;100668.66;4965667;28;19956;-77
2022/01/08 00:21:01;;;;;;;;;;;;;;;0.07;100.00;100664.31;4959745;28;20740;-78
2022/01/08 00:23:26;;;;;;;;;;;;;;;-0.01;100.00;100670.69;4965119;28;19917;-79
2022/01/08 00:25:52;;;;;;;;;;;;;;;0.05;100.00;100666.16;4969193;28;19918;-78
2022/01/08 00:28:17;;;;;;;;;;;;;;;0.07;100.00;100664.31;4942707;28;20280;-78
2022/01/08 00:30:43;;;;;;;;;;;;;;;0.11;100.00;100661.47;4979879;28;20004;-79
2022/01/08 00:33:08;;;;;;;;;;;;;;;0.17;100.00;100650.84;4973134;28;19918;-77
2022/01/08 00:35:34;;;;;;;;;;;;;;;0.14;100.00;100661.31;4998648;28;20418;-76
2022/01/08 00:38:00;;;;;;;;;;;;;;;0.33;100.00;100663.75;4979214;28;19924;-76
2022/01/08 00:40:26;;;;;;;;;;;;;;;0.34;100.00;100652.53;4947277;28;19914;-78
2022/01/08 00:42:51;;;;;;;;;;;;;;;0.35;100.00;100651.59;4963393;28;19927;-77
2022/01/08 00:45:17;;;;;;;;;;;;;;;0.28;100.00;100655.41;4965479;28;20336;-77
2022/01/08 00:47:42;;;;;;;;;;;;;;;0.25;100.00;100657.34;4945317;28;19924;-79
2022/01/08 00:50:10;;;;;;;;;;;;;;;0.21;100.00;100653.25;4956342;28;19968;-76
2022/01/08 00:52:36;;;;;;;;;;;;;;;0.08;100.00;100656.50;4977784;28;19936;-78
2022/01/08 00:55:01;;;;;;;;;;;;;;;0.11;100.00;100647.75;4984822;28;20383;-78
2022/01/08 00:57:27;;;;;;;;;;;;;;;0.15;100.00;100644.94;4997304;28;19914;-78
2022/01/08 00:59:52;;;;;;;;;;;;;;;0.21;100.00;100645.50;4959210;28;20574;-78
2022/01/08 01:02:17;;;;;;;;;;;;;;;0.29;100.00;100653.69;4959471;28;19971;-78
2022/01/08 01:04:43;;;;;;;;;;;;;;;0.15;100.00;100644.94;4964684;28;20446;-77
2022/01/08 01:07:08;;;;;;;;;;;;;;;0.32;100.00;100648.34;4955731;28;19920;-77
2022/01/08 01:09:34;;;;;;;;;;;;;;;0.34;100.00;100641.34;4970221;28;20335;-77
2022/01/08 01:11:59;;;;;;;;;;;;;;;0.23;100.00;100639.38;4955939;28;20007;-78
2022/01/08 01:14:25;;;;;;;;;;;;;;;0.19;100.00;100643.03;4957032;28;19973;-77
2022/01/08 01:16:50;;;;;;;;;;;;;;;0.09;100.00;100644.44;4979273;28;19932;-78
2022/01/08 01:19:16;;;;;;;;;;;;;;;0.11;100.00;100647.75;4940695;28;20273;-77
2022/01/08 01:21:41;;;;;;;;;;;;;;;0.11;100.00;100650.34;4988128;28;19938;-77
2022/01/08 01:24:16;;;;;;;;;;;;;;;0.07;100.00;100651.41;4986457;28;20350;-78
2022/01/08 01:26:56;;;;;;;;;;;;;;;0.15;100.00;100660.41;4979454;28;19917;-78
2022/01/08 01:29:34;;;;;;;;;;;;;;;0.30;100.00;100652.75;4958441;28;19924;-77
2022/01/08 01:48:22;;;;;;;;;;;;;;;0.62;100.00;100663.91;4993012;28;19922;-76
2022/01/08 01:50:47;;;;;;;;;;;;;;;0.72;100.00;100659.91;4993776;28;19913;-76
2022/01/08 01:53:13;;;;;;;;;;;;;;;0.71;100.00;100663.41;4958494;28;20284;-77
2022/01/08 01:55:39;;;;;;;;;;;;;;;0.68;100.00;100658.44;4990353;28;19921;-77
2022/01/08 01:58:06;;;;;;;;;;;;;;;0.71;100.00;100660.81;4956361;28;19917;-76
2022/01/08 02:00:32;;;;;;;;;;;;;;;0.69;100.00;100661.81;4976675;28;19921;-78
2022/01/08 02:02:58;;;;;;;;;;;;;;;0.62;100.00;100663.06;4957586;28;20415;-76
2022/01/08 02:05:25;;;;;;;;;;;;;;;0.66;100.00;100659.41;4972048;28;19918;-76
2022/01/08 02:07:50;;;;;;;;;;;;;;;0.65;100.00;100653.41;4977367;28;19924;-77
2022/01/08 02:10:16;;;;;;;;;;;;;;;0.66;100.00;100655.09;4951018;28;19918;-77
2022/01/08 02:12:41;;;;;;;;;;;;;;;0.70;100.00;100650.59;4973601;28;19926;-78
2022/01/08 02:15:07;;;;;;;;;;;;;;;0.76;100.00;100655.41;4959088;28;19913;-77
2022/01/08 02:17:32;;;;;;;;;;;;;;;0.75;100.00;100656.31;4972223;28;19918;-77
2022/01/08 02:19:58;;;;;;;;;;;;;;;0.74;100.00;100655.50;4971622;28;19940;-77
2022/01/08 02:22:24;;;;;;;;;;;;;;;0.73;100.00;100658.16;4970823;28;19918;-77
2022/01/08 02:24:49;;;;;;;;;;;;;;;0.76;100.00;100650.25;4960635;28;19956;-76
2022/01/08 02:27:15;;;;;;;;;;;;;;;0.76;100.00;100656.25;4970894;28;19913;-77
2022/01/08 02:29:41;;;;;;;;;;;;;;;0.82;100.00;100659.41;4960893;28;20434;-76
2022/01/08 02:32:09;;;;;;;;;;;;;;;0.82;100.00;100655.06;4961910;28;19917;-79
2022/01/08 02:34:36;;;;;;;;;;;;;;;0.87;100.00;100654.81;4975293;28;20005;-76
2022/01/08 02:37:02;;;;;;;;;;;;;;;0.81;100.00;100655.16;4975409;28;19924;-78
2022/01/08 02:39:27;;;;;;;;;;;;;;;0.80;100.00;100661.25;4988350;28;19945;-78
2022/01/08 02:41:59;;;;;;;;;;;;;;;0.81;100.00;100655.16;4976843;28;19913;-77
2022/01/08 02:44:25;;;;;;;;;;;;;;;0.84;100.00;100660.97;4950707;28;19925;-77
2022/01/08 02:46:51;;;;;;;;;;;;;;;0.83;100.00;100656.75;4988166;28;19913;-77
2022/01/08 02:49:17;;;;;;;;;;;;;;;0.69;100.00;100665.22;4972500;28;19936;-76
2022/01/08 02:51:43;;;;;;;;;;;;;;;0.83;100.00;100669.66;4968856;28;20368;-78
2022/01/08 02:54:09;;;;;;;;;;;;;;;0.77;100.00;100662.22;4957161;28;19925;-77
2022/01/08 02:56:42;;;;;;;;;;;;;;;0.65;100.00;100668.91;4990825;28;19924;-77
2022/01/08 02:59:07;;;;;;;;;;;;;;;0.72;100.00;100661.66;4966867;28;19994;-76
2022/01/08 03:01:33;;;;;;;;;;;;;;;0.72;100.00;100648.75;4964893;28;19933;-77
2022/01/08 03:03:59;;;;;;;;;;;;;;;0.80;100.00;100656.06;4962634;28;20005;-79
2022/01/08 03:06:25;;;;;;;;;;;;;;;0.78;100.00;100658.75;4995875;28;20434;-77
2022/01/08 03:08:50;;;;;;;;;;;;;;;0.77;100.00;100646.72;4979496;28;19934;-76
2022/01/08 03:11:16;;;;;;;;;;;;;;;0.81;100.00;100649.97;4979739;28;20388;-77
2022/01/08 03:13:41;;;;;;;;;;;;;;;0.83;100.00;100649.00;4963693;28;19917;-76
2022/01/08 03:16:07;;;;;;;;;;;;;;;0.68;100.00;100648.09;5002816;28;19932;-77
2022/01/08 03:18:34;;;;;;;;;;;;;;;0.80;100.00;100661.25;4975491;28;19973;-77
2022/01/08 03:21:02;;;;;;;;;;;;;;;0.84;100.00;100649.81;4976037;28;20028;-77
2022/01/08 03:23:38;;;;;;;;;;;;;;;0.82;100.00;100652.47;4961217;28;20391;-77
2022/01/08 03:26:04;;;;;;;;;;;;;;;0.64;100.00;100650.91;4974159;28;19925;-76
2022/01/08 03:28:29;;;;;;;;;;;;;;;0.69;100.00;100654.91;4959001;28;20415;-76
2022/01/08 03:30:55;;;;;;;;;;;;;;;0.70;100.00;100654.00;4958522;28;20008;-78
2022/01/08 03:33:20;;;;;;;;;;;;;;;0.67;100.00;100661.91;4972082;28;20827;-76
2022/01/08 03:35:46;;;;;;;;;;;;;;;0.75;100.00;100664.06;4979901;28;19932;-77
2022/01/08 03:38:11;;;;;;;;;;;;;;;0.84;100.00;100655.81;4968818;28;19924;-78
2022/01/08 03:40:37;;;;;;;;;;;;;;;0.81;100.00;100668.06;4979557;28;20372;-77
2022/01/08 03:43:02;;;;;;;;;;;;;;;0.85;100.00;100660.06;5004022;28;19914;-78
2022/01/08 03:45:28;;;;;;;;;;;;;;;0.74;100.00;100660.66;4979142;28;19936;-77
2022/01/08 03:48:07;;;;;;;;;;;;;;;0.75;100.00;100664.06;4969504;28;19997;-77
2022/01/08 03:50:33;;;;;;;;;;;;;;;0.77;100.00;100660.50;4977137;28;19925;-77
2022/01/08 03:52:58;;;;;;;;;;;;;;;0.82;100.00;100659.41;4993695;28;19939;-77
2022/01/08 03:55:24;;;;;;;;;;;;;;;0.83;100.00;100661.91;4982590;28;19918;-78
2022/01/08 03:57:49;;;;;;;;;;;;;;;0.74;100.00;100662.41;4986347;28;19921;-77
2022/01/08 04:00:15;;;;;;;;;;;;;;;0.74;100.00;100660.66;4967979;28;19921;-78
2022/01/08 04:02:41;;;;;;;;;;;;;;;0.80;100.00;100666.41;4965860;28;19917;-77
2022/01/08 04:05:06;;;;;;;;;;;;;;;0.80;100.00;100669.00;4960001;28;19972;-78
2022/01/08 04:07:32;;;;;;;;;;;;;;;0.80;100.00;100661.25;5003680;28;21839;-78
2022/01/08 04:09:57;;;;;;;;;;;;;;;0.81;100.00;100657.72;4986888;28;19914;-78
2022/01/08 04:12:34;;;;;;;;;;;;;;;0.76;100.00;100656.25;4993133;28;19972;-77
2022/01/08 04:15:30;;;;;;;;;;;;;;;0.80;100.00;100658.66;4966446;28;19925;-78
2022/01/08 04:17:49;;;;;;;;;;;;;;;0.82;100.00;100656.81;4975798;28;19918;-77
2022/01/08 04:20:15;;;;;;;;;;;;;;;0.80;100.00;100649.16;4961670;28;19949;-77
2022/01/08 04:22:40;;;;;;;;;;;;;;;0.72;100.00;100656.50;4982997;28;19914;-77
2022/01/08 04:25:06;;;;;;;;;;;;;;;0.83;100.00;100642.97;4966565;28;19920;-78
2022/01/08 04:27:31;;;;;;;;;;;;;;;0.82;100.00;100644.72;4963824;28;19952;-77
2022/01/08 04:29:57;;;;;;;;;;;;;;;0.82;100.00;100644.72;4966498;28;19913;-78
2022/01/08 04:32:23;;;;;;;;;;;;;;;0.75;100.00;100646.84;4977149;28;20383;-78
2022/01/08 04:34:48;;;;;;;;;;;;;;;0.80;100.00;100646.56;4966294;28;20478;-79
2022/01/08 04:37:14;;;;;;;;;;;;;;;0.80;100.00;100646.56;4963654;28;19929;-77
2022/01/08 04:39:40;;;;;;;;;;;;;;;0.82;100.00;100638.75;4995340;28;19914;-77
2022/01/08 04:42:05;;;;;;;;;;;;;;;0.83;100.00;100637.81;4977335;28;20399;-79
2022/01/08 04:44:31;;;;;;;;;;;;;;;0.84;100.00;100640.31;4959039;28;19944;-78
2022/01/08 04:46:56;;;;;;;;;;;;;;;0.82;100.00;100639.56;4988698;28;20019;-78
2022/01/08 04:49:22;;;;;;;;;;;;;;;0.79;100.00;100639.72;4976263;28;20012;-78
2022/01/08 04:51:47;;;;;;;;;;;;;;;0.78;100.00;100638.09;4991495;28;19914;-79
2022/01/08 04:54:13;;;;;;;;;;;;;;;0.72;100.00;100644.41;4959178;28;20372;-78
2022/01/08 04:56:38;;;;;;;;;;;;;;;0.85;100.00;100644.56;4976967;28;19925;-78
2022/01/08 04:59:04;;;;;;;;;;;;;;;0.83;100.00;100641.25;4989431;28;19914;-77
2022/01/08 05:01:30;;;;;;;;;;;;;;;0.90;100.00;100646.88;4961659;28;19924;-78
2022/01/08 05:03:56;;;;;;;;;;;;;;;0.88;100.00;100648.72;4978276;28;20009;-79
2022/01/08 05:06:21;;;;;;;;;;;;;;;0.90;100.00;100650.28;4960154;28;19922;-80
2022/01/08 05:08:47;;;;;;;;;;;;;;;0.77;100.00;100646.72;5003400;28;19936;-78
2022/01/08 05:11:12;;;;;;;;;;;;;;;0.76;100.00;100645.91;4995710;28;20018;-78
2022/01/08 05:13:38;;;;;;;;;;;;;;;0.85;100.00;100638.56;4979770;28;19925;-78
2022/01/08 05:16:05;;;;;;;;;;;;;;;0.84;100.00;100642.06;4979906;28;20368;-78
2022/01/08 05:18:31;;;;;;;;;;;;;;;0.82;100.00;100641.31;4978288;28;20000;-78
2022/01/08 05:21:09;;;;;;;;;;;;;;;0.88;100.00;100635.81;4976485;28;19918;-78
2022/01/08 05:23:35;;;;;;;;;;;;;;;0.85;100.00;100636.81;4976580;28;19929;-78
2022/01/08 05:26:00;;;;;;;;;;;;;;;0.86;100.00;100638.47;4985305;28;20041;-78
2022/01/08 05:28:26;;;;;;;;;;;;;;;0.83;100.00;100638.66;4974730;28;19968;-78
2022/01/08 05:30:51;;;;;;;;;;;;;;;0.89;100.00;100637.50;4958262;28;20013;-78
2022/01/08 05:33:17;;;;;;;;;;;;;;;0.90;100.00;100642.53;4958260;28;20013;-77
2022/01/08 05:35:44;;;;;;;;;;;;;;;0.88;100.00;100644.38;4944188;28;19917;-80
2022/01/08 05:38:09;;;;;;;;;;;;;;;0.96;100.00;100643.94;4973628;28;19925;-79
2022/01/08 05:40:35;;;;;;;;;;;;;;;1.00;100.00;100650.63;4987731;28;19918;-78
2022/01/08 05:43:00;;;;;;;;;;;;;;;1.00;100.00;100650.63;4972844;28;19917;-79
2022/01/08 05:45:26;;;;;;;;;;;;;;;0.98;100.00;100652.47;4958850;28;20351;-78
2022/01/08 05:47:52;;;;;;;;;;;;;;;0.94;100.00;100649.22;4980805;28;19921;-78
2022/01/08 05:50:17;;;;;;;;;;;;;;;0.95;100.00;100653.44;4991149;28;19960;-78
2022/01/08 05:52:43;;;;;;;;;;;;;;;0.97;100.00;100663.69;4971477;28;19937;-79
2022/01/08 05:55:09;;;;;;;;;;;;;;;0.96;100.00;100670.63;4972933;28;19913;-78
2022/01/08 05:57:35;;;;;;;;;;;;;;;1.02;100.00;100666.00;4967506;28;19936;-80
2022/01/08 06:00:01;;;;;;;;;;;;;;;0.98;100.00;100665.38;4962001;28;19921;-79
2022/01/08 06:02:34;;;;;;;;;;;;;;;0.97;100.00;100667.09;5000569;28;19921;-78
2022/01/08 06:04:59;;;;;;;;;;;;;;;1.01;100.00;100665.19;4982918;28;20000;-78
2022/01/08 06:07:25;;;;;;;;;;;;;;;0.98;100.00;100673.13;4945506;28;19933;-78
2022/01/08 06:09:50;;;;;;;;;;;;;;;0.99;100.00;100679.13;4964004;28;19914;-78
2022/01/08 06:12:16;;;;;;;;;;;;;;;0.94;100.00;100676.78;4965199;28;20357;-78
2022/01/08 06:14:41;;;;;;;;;;;;;;;1.03;100.00;100683.19;4992735;28;20533;-79
2022/01/08 06:17:07;;;;;;;;;;;;;;;0.97;100.00;100674.84;4947107;28;20305;-77
2022/01/08 06:19:32;;;;;;;;;;;;;;;1.01;100.00;100674.69;4977010;28;19931;-76
2022/01/08 06:21:58;;;;;;;;;;;;;;;1.07;100.00;100672.59;4962992;28;20388;-80
2022/01/08 06:24:24;;;;;;;;;;;;;;;1.15;100.00;100692.84;4979576;28;19921;-78
2022/01/08 06:26:49;;;;;;;;;;;;;;;1.13;100.00;100697.22;4985035;28;19958;-78
2022/01/08 06:29:15;;;;;;;;;;;;;;;1.14;100.00;100704.91;4961666;28;19967;-79
2022/01/08 06:31:40;;;;;;;;;;;;;;;1.14;100.00;100701.50;4975261;28;20398;-78
2022/01/08 06:34:06;;;;;;;;;;;;;;;1.13;100.00;100703.25;4970448;28;20289;-77
2022/01/08 06:36:32;;;;;;;;;;;;;;;1.13;100.00;100711.00;5001730;28;19922;-77
2022/01/08 06:38:57;;;;;;;;;;;;;;;1.06;100.00;100714.84;5006263;28;19914;-78
2022/01/08 06:41:23;;;;;;;;;;;;;;;1.06;100.00;100716.59;4946178;28;20379;-78
2022/01/08 06:43:48;;;;;;;;;;;;;;;1.11;100.00;100719.75;4969949;28;19917;-78
2022/01/08 06:46:14;;;;;;;;;;;;;;;1.08;100.00;100720.75;4964330;28;20269;-78
2022/01/08 06:48:43;;;;;;;;;;;;;;;1.17;100.00;100722.81;4972384;28;20019;-79
2022/01/08 06:51:08;;;;;;;;;;;;;;;1.07;100.00;100726.00;4959974;28;19980;-78
2022/01/08 06:53:34;;;;;;;;;;;;;;;1.20;100.00;100728.75;4966661;28;20631;-78
2022/01/08 06:56:00;;;;;;;;;;;;;;;1.20;100.00;100734.72;4961492;28;20391;-79
2022/01/08 06:58:26;;;;;;;;;;;;;;;1.14;100.00;100728.16;4968206;28;19917;-78
2022/01/08 07:00:52;;;;;;;;;;;;;;;1.16;100.00;100725.50;4972486;28;19923;-79
2022/01/08 07:03:17;;;;;;;;;;;;;;;1.15;100.00;100726.44;4965052;28;19910;-79
2022/01/08 07:05:43;;;;;;;;;;;;;;;1.19;100.00;100727.06;4965386;28;19913;-78
2022/01/08 07:08:10;;;;;;;;;;;;;;;1.13;100.00;100720.50;4984063;28;20346;-79
2022/01/08 07:10:36;;;;;;;;;;;;;;;1.19;100.00;100717.59;4964101;28;19917;-78
2022/01/08 07:13:02;;;;;;;;;;;;;;;1.14;100.00;100717.81;4960886;28;20008;-78
2022/01/08 07:15:27;;;;;;;;;;;;;;;1.20;100.00;100723.56;5002123;28;20008;-79
2022/01/08 07:17:53;;;;;;;;;;;;;;;1.22;100.00;100721.72;4971933;28;20008;-78
2022/01/08 07:20:19;;;;;;;;;;;;;;;1.20;100.00;100723.56;4960459;28;20395;-77
2022/01/08 07:22:44;;;;;;;;;;;;;;;1.24;100.00;100725.06;4963359;28;19914;-78
2022/01/08 07:25:10;;;;;;;;;;;;;;;1.21;100.00;100723.50;4964140;28;20048;-78
2022/01/08 07:27:36;;;;;;;;;;;;;;;1.14;100.00;100719.59;4972655;28;19924;-79
2022/01/08 07:30:03;;;;;;;;;;;;;;;1.13;100.00;100721.34;4968121;28;19924;-78
2022/01/08 07:32:29;;;;;;;;;;;;;;;1.20;100.00;100718.41;5004906;28;19920;-79
2022/01/08 07:34:54;;;;;;;;;;;;;;;1.21;100.00;100714.91;4981332;28;20017;-79
2022/01/08 07:37:20;;;;;;;;;;;;;;;1.20;100.00;100714.06;4979009;28;19929;-78
2022/01/08 07:39:45;;;;;;;;;;;;;;;1.21;100.00;100718.31;4974318;28;19917;-78
2022/01/08 07:42:11;;;;;;;;;;;;;;;1.15;100.00;100718.69;5001392;28;20451;-80
2022/01/08 07:44:39;;;;;;;;;;;;;;;1.23;100.00;100721.66;4981785;28;19926;-77
2022/01/08 07:47:05;;;;;;;;;;;;;;;1.20;100.00;100719.22;4963919;28;19956;-79
2022/01/08 07:49:30;;;;;;;;;;;;;;;1.26;100.00;100721.50;4976528;28;19964;-79
2022/01/08 07:51:56;;;;;;;;;;;;;;;1.23;100.00;100715.66;4963621;28;19948;-80
2022/01/08 07:54:21;;;;;;;;;;;;;;;1.28;100.00;100718.78;4992826;28;19918;-79
2022/01/08 07:56:46;;;;;;;;;;;;;;;1.24;100.00;100718.13;4988573;28;19977;-78
2022/01/08 07:59:12;;;;;;;;;;;;;;;1.25;100.00;100712.06;4978473;28;20071;-78
2022/01/08 08:01:37;;;;;;;;;;;;;;;1.32;100.00;100721.13;4981315;28;19917;-80
2022/01/08 08:04:03;;;;;;;;;;;;;;;1.25;100.00;100724.16;5001442;28;19920;-78
2022/01/08 08:06:28;;;;;;;;;;;;;;;1.31;100.00;100713.47;4960941;28;19989;-78
2022/01/08 08:08:54;;;;;;;;;;;;;;;1.26;100.00;100713.72;4966617;28;19913;-80
2022/01/08 08:11:19;;;;;;;;;;;;;;;1.30;100.00;100712.63;4963751;28;19913;-78
2022/01/08 08:13:45;;;;;;;;;;;;;;;1.30;100.00;100711.78;4968508;28;20012;-78
2022/01/08 08:16:11;;;;;;;;;;;;;;;1.33;100.00;100709.84;4962213;28;19921;-79
2022/01/08 08:18:36;;;;;;;;;;;;;;;1.35;100.00;100696.84;4947836;28;20292;-78
2022/01/08 08:21:02;;;;;;;;;;;;;;;1.32;100.00;100699.63;5002402;28;19921;-79
2022/01/08 08:23:27;;;;;;;;;;;;;;;1.38;100.00;100703.63;4984434;28;19925;-78
2022/01/08 08:25:53;;;;;;;;;;;;;;;1.33;100.00;100702.09;4997819;28;19917;-78
2022/01/08 08:28:19;;;;;;;;;;;;;;;1.34;100.00;100700.38;5001035;28;19924;-78
2022/01/08 08:30:44;;;;;;;;;;;;;;;1.35;100.00;100697.69;4981479;28;20384;-78
2022/01/08 08:33:10;;;;;;;;;;;;;;;1.39;100.00;100700.09;5003634;28;20011;-78
2022/01/08 08:35:35;;;;;;;;;;;;;;;1.38;100.00;100688.94;4990226;28;19922;-77
2022/01/08 08:38:01;;;;;;;;;;;;;;;1.39;100.00;100698.34;4975848;28;19917;-77
2022/01/08 08:40:27;;;;;;;;;;;;;;;1.42;100.00;100694.75;4996494;28;19921;-76
2022/01/08 08:42:53;;;;;;;;;;;;;;;1.36;100.00;100699.34;4980087;28;19914;-76
2022/01/08 08:45:18;;;;;;;;;;;;;;;1.31;100.00;100692.78;4959143;28;19917;-77
2022/01/08 08:47:44;;;;;;;;;;;;;;;1.34;100.00;100695.19;4981453;28;19925;-77
2022/01/08 08:50:11;;;;;;;;;;;;;;;1.34;100.00;100692.63;4956402;28;19940;-77
2022/01/08 08:52:36;;;;;;;;;;;;;;;1.37;100.00;100687.25;4975895;28;20008;-77
2022/01/08 08:55:02;;;;;;;;;;;;;;;1.42;100.00;100679.25;4952582;28;20016;-77
2022/01/08 08:57:27;;;;;;;;;;;;;;;1.47;100.00;100677.22;4977006;28;19921;-77
2022/01/08 08:59:55;;;;;;;;;;;;;;;1.47;100.00;100690.13;4981840;28;19917;-78
2022/01/08 09:02:21;;;;;;;;;;;;;;;1.39;100.00;100682.00;4983175;28;19918;-77
2022/01/08 09:04:48;;;;;;;;;;;;;;;1.46;100.00;100680.72;4962861;28;19918;-77
2022/01/08 09:07:13;;;;;;;;;;;;;;;1.38;100.00;100675.19;4958670;28;19922;-78
2022/01/08 09:09:38;;;;;;;;;;;;;;;1.32;100.00;100677.19;4978753;28;19998;-77
2022/01/08 09:12:04;;;;;;;;;;;;;;;1.37;100.00;100684.66;4954097;28;20340;-77
2022/01/08 09:14:30;;;;;;;;;;;;;;;1.47;100.00;100678.06;4989138;28;19922;-78
2022/01/08 09:16:57;;;;;;;;;;;;;;;1.55;100.00;100673.25;4944221;28;19968;-79
2022/01/08 09:19:23;;;;;;;;;;;;;;;1.62;100.00;100681.50;4973248;28;19956;-78
2022/01/08 09:21:49;;;;;;;;;;;;;;;1.64;100.00;100676.22;4944215;28;20332;-76
2022/01/08 09:24:16;;;;;;;;;;;;;;;1.68;100.00;100681.13;4954861;28;19924;-80
2022/01/08 09:26:41;;;;;;;;;;;;;;;1.70;100.00;100679.28;4992049;28;20477;-78
2022/01/08 09:29:07;;;;;;;;;;;;;;;1.74;100.00;100680.75;4961722;28;19921;-78
2022/01/08 09:31:33;;;;;;;;;;;;;;;1.76;100.00;100678.09;4977326;28;19975;-79
2022/01/08 09:33:59;;;;;;;;;;;;;;;1.82;100.00;100684.66;5000427;28;20293;-79
2022/01/08 09:36:25;;;;;;;;;;;;;;;1.89;100.00;100689.38;4976284;28;20655;-79
2022/01/08 09:38:51;;;;;;;;;;;;;;;1.93;100.00;100684.84;4979280;28;19918;-79
2022/01/08 09:41:17;;;;;;;;;;;;;;;2.09;100.00;100685.59;4979262;28;19913;-79
2022/01/08 09:43:42;;;;;;;;;;;;;;;2.16;100.00;100686.03;4993387;28;19973;-79
2022/01/08 09:46:08;;;;;;;;;;;;;;;2.25;100.00;100688.06;4973207;28;19913;-80
2022/01/08 09:48:33;;;;;;;;;;;;;;;2.30;100.00;100682.63;4974474;28;19928;-77
2022/01/08 09:50:59;;;;;;;;;;;;;;;2.27;100.00;100687.97;4964901;28;20001;-79
2022/01/08 09:53:25;;;;;;;;;;;;;;;2.25;100.00;100690.66;4980733;28;19948;-79
2022/01/08 09:55:50;;;;;;;;;;;;;;;2.17;100.00;100679.94;4997011;28;20304;-78
2022/01/08 09:58:16;;;;;;;;;;;;;;;2.16;100.00;100682.63;4968558;28;19913;-78
2022/01/08 10:00:44;;;;;;;;;;;;;;;2.08;100.00;100683.09;4952364;28;19913;-78
2022/01/08 10:03:17;;;;;;;;;;;;;;;2.15;100.00;100671.44;4944645;28;20392;-78
2022/01/08 10:05:47;;;;;;;;;;;;;;;2.15;100.00;100681.78;4964116;28;20459;-78
2022/01/08 10:08:14;;;;;;;;;;;;;;;2.22;100.00;100684.81;4975031;28;19924;-79
2022/01/08 10:10:39;;;;;;;;;;;;;;;2.28;100.00;100685.28;4972303;28;20020;-78
2022/01/08 10:13:05;;;;;;;;;;;;;;;2.32;100.00;100688.53;4974982;28;19996;-78
2022/01/08 10:18:32;;;;;;;;;;;;;;;2.42;100.00;100693.97;4962289;28;19924;-79
2022/01/08 10:20:58;;;;;;;;;;;;;;;2.51;100.00;100688.22;4964021;28;19920;-78
2022/01/08 10:23:23;;;;;;;;;;;;;;;2.51;100.00;100689.03;4976725;28;19918;-78
2022/01/08 10:25:55;;;;;;;;;;;;;;;2.47;100.00;100682.38;4959725;28;20268;-78
2022/01/08 10:28:33;;;;;;;;;;;;;;;2.46;100.00;100682.47;4976245;28;19923;-77
2022/01/08 10:31:09;;;;;;;;;;;;;;;2.51;100.00;100686.44;4978812;28;19913;-78
2022/01/08 10:33:35;;;;;;;;;;;;;;;2.63;100.00;100679.66;4959580;28;20287;-79
2022/01/08 10:36:00;;;;;;;;;;;;;;;2.59;100.00;100683.38;4947080;28;20020;-76
2022/01/08 10:38:26;;;;;;;;;;;;;;;2.65;100.00;100682.97;5000662;28;20028;-78
2022/01/08 10:40:52;;;;;;;;;;;;;;;2.81;100.00;100680.25;4978375;28;19921;-79
2022/01/08 10:43:21;;;;;;;;;;;;;;;2.78;100.00;100669.25;4948743;28;19917;-78
2022/01/08 10:45:47;;;;;;;;;;;;;;;2.79;100.00;100664.00;4965286;28;19920;-81
2022/01/08 10:48:13;;;;;;;;;;;;;;;2.79;100.00;100663.13;4955712;28;19921;-78
2022/01/08 10:50:38;;;;;;;;;;;;;;;2.85;100.00;100661.00;4974128;28;20459;-77
2022/01/08 10:53:04;;;;;;;;;;;;;;;2.91;100.00;100659.78;4973853;28;20503;-76
2022/01/08 10:55:30;;;;;;;;;;;;;;;2.89;100.00;100653.84;4971652;28;19918;-76
2022/01/08 10:57:56;;;;;;;;;;;;;;;2.87;100.00;100659.13;4971669;28;19918;-77
2022/01/08 11:00:29;;;;;;;;;;;;;;;2.94;100.00;100654.41;4954162;28;19924;-78
2022/01/08 11:02:54;;;;;;;;;;;;;;;2.85;100.00;100655.00;4976244;28;19918;-77
2022/01/08 11:05:20;;;;;;;;;;;;;;;2.78;100.00;100651.13;4990683;28;20538;-77
2022/01/08 11:07:46;;;;;;;;;;;;;;;2.80;100.00;100651.84;4986975;28;19929;-77
2022/01/08 11:10:19;;;;;;;;;;;;;;;2.92;100.00;100645.91;4955575;28;19917;-77
2022/01/08 11:12:46;;;;;;;;;;;;;;;3.00;100.00;100643.63;4967227;28;20024;-77
2022/01/08 11:17:41;;;;;;;;;;;;;;;3.10;100.00;100629.13;4994162;28;19967;-77
2022/01/08 11:20:26;;;;;;;;;;;;;;;3.11;100.00;100629.97;4973689;28;19918;-77
2022/01/08 11:22:52;;;;;;;;;;;;;;;3.11;100.00;100622.19;4975094;28;20273;-77
2022/01/08 11:25:23;;;;;;;;;;;;;;;3.05;100.00;100613.06;4987395;28;19972;-77
2022/01/08 11:28:10;;;;;;;;;;;;;;;3.04;100.00;100605.38;4957155;28;19924;-77
2022/01/08 11:30:38;;;;;;;;;;;;;;;3.08;100.00;100601.66;4991612;28;19918;-77
2022/01/08 11:33:09;;;;;;;;;;;;;;;3.10;100.00;100603.22;4977974;28;19918;-79
2022/01/08 11:35:36;;;;;;;;;;;;;;;3.10;100.00;100592.84;5000942;28;19917;-77
2022/01/08 11:38:04;;;;;;;;;;;;;;;3.22;100.00;100591.22;4985837;28;19920;-78
2022/01/08 11:40:30;;;;;;;;;;;;;;;3.23;100.00;100586.84;4961620;28;20301;-78
2022/01/08 11:43:02;;;;;;;;;;;;;;;3.29;100.00;100576.06;4937992;28;19921;-77
2022/01/08 11:45:29;;;;;;;;;;;;;;;3.28;100.00;100577.00;4967416;28;19914;-78
2022/01/08 11:47:56;;;;;;;;;;;;;;;3.31;100.00;100580.22;4993278;28;20000;-78
2022/01/08 11:50:23;;;;;;;;;;;;;;;3.34;100.00;100580.94;4991604;28;19918;-78
2022/01/08 11:53:07;;;;;;;;;;;;;;;3.31;100.00;100567.28;4977933;28;20007;-79
2022/01/08 11:55:34;;;;;;;;;;;;;;;3.39;100.00;100563.31;4974306;28;19929;-79
2022/01/08 11:58:19;;;;;;;;;;;;;;;3.44;100.00;100559.47;4959606;28;19917;-76
2022/01/08 12:00:49;;;;;;;;;;;;;;;3.58;100.00;100553.34;4981100;28;19980;-78
2022/01/08 12:03:19;;;;;;;;;;;;;;;3.61;100.00;100550.53;4960050;28;19940;-81
2022/01/08 12:05:44;;;;;;;;;;;;;;;3.65;100.00;100554.56;4968222;28;19921;-81
2022/01/08 12:08:15;;;;;;;;;;;;;;;3.68;100.00;100549.16;4963753;28;19920;-80
2022/01/08 12:10:59;;;;;;;;;;;;;;;3.70;100.00;100549.06;4961736;28;19913;-79
2022/01/08 12:13:44;;;;;;;;;;;;;;;3.65;100.00;100545.94;4962794;28;19924;-81
2022/01/08 12:16:28;;;;;;;;;;;;;;;3.59;100.00;100544.63;4986249;28;19921;-81
2022/01/08 12:18:54;;;;;;;;;;;;;;;3.49;100.00;100544.41;4975869;28;20004;-80
2022/01/08 12:21:39;;;;;;;;;;;;;;;3.43;100.00;100531.06;4980959;28;20530;-79
2022/01/08 12:24:20;;;;;;;;;;;;;;;3.43;100.00;100533.66;4972225;28;19918;-79
2022/01/08 12:26:45;;;;;;;;;;;;;;;3.43;100.00;100523.28;4969575;28;19917;-80
2022/01/08 12:29:30;;;;;;;;;;;;;;;3.44;100.00;100533.53;4961171;28;19921;-80
2022/01/08 12:32:16;;;;;;;;;;;;;;;3.46;100.00;100525.66;4975962;28;19914;-78
2022/01/08 12:34:48;;;;;;;;;;;;;;;3.51;100.00;100521.81;4974727;28;20343;-77
2022/01/08 12:37:14;;;;;;;;;;;;;;;3.55;100.00;100524.19;4942752;28;19976;-76
2022/01/08 12:39:39;;;;;;;;;;;;;;;3.55;100.00;100524.19;4958236;28;19918;-76
2022/01/08 12:42:20;;;;;;;;;;;;;;;3.58;100.00;100527.41;4990155;28;19929;-77
2022/01/08 12:45:02;;;;;;;;;;;;;;;3.62;100.00;100525.44;4990134;28;19944;-76
2022/01/08 12:47:36;;;;;;;;;;;;;;;3.57;100.00;100517.13;4970952;28;19921;-76
2022/01/08 12:50:21;;;;;;;;;;;;;;;3.44;100.00;100519.75;4981997;28;19938;-76
2022/01/08 12:53:05;;;;;;;;;;;;;;;3.41;100.00;100513.00;4973957;28;19956;-76
2022/01/08 12:55:31;;;;;;;;;;;;;;;3.38;100.00;100513.22;4999583;28;19965;-77
2022/01/08 12:57:56;;;;;;;;;;;;;;;3.32;100.00;100500.69;4980819;28;20023;-79